Time;durP1;ratioP1;P1;durP2;ratioP2;P2;SDS_P1;SDS_P2;PMS_P1;PMS_P2;Temp;Humidity;BMP_temperature;BMP_pressure;BME280_temperature;BME280_humidity;BME280_pressure;Samples;Min_cycle;Max_cycle;Signal;HPM_P1;HPM_P2
2021/11/23 00:00:14;;;;;;;9.85;5.88;;;1.00;99.90;;;;;;2081633;28;20159;-72
2021/11/23 00:01:26;;;;;;;8.20;5.85;;;1.00;99.90;;;;;;2081504;28;20045;-73
2021/11/23 00:02:29;;;;;;;10.15;6.50;;;1.00;99.90;;;;;;2080792;28;20044;-72
2021/11/23 00:03:33;;;;;;;13.35;7.45;;;1.00;99.90;;;;;;2089411;28;20032;-73
2021/11/23 00:04:37;;;;;;;12.25;7.88;;;1.00;99.90;;;;;;2096699;28;20474;-73
2021/11/23 00:05:37;;;;;;;14.82;7.88;;;1.00;99.90;;;;;;2081655;28;20106;-72
2021/11/23 00:06:38;;;;;;;14.35;8.30;;;0.90;99.90;;;;;;2081186;28;20033;-73
2021/11/23 00:07:42;;;;;;;14.98;8.30;;;0.90;99.90;;;;;;2072699;28;20531;-73
2021/11/23 00:08:43;;;;;;;14.02;8.52;;;0.90;99.90;;;;;;2073097;28;20030;-73
2021/11/23 00:09:46;;;;;;;13.88;8.32;;;0.90;99.90;;;;;;2081605;28;20014;-73
2021/11/23 00:10:48;;;;;;;14.55;7.80;;;0.90;99.90;;;;;;2081757;28;20062;-74
2021/11/23 00:11:48;;;;;;;13.38;7.70;;;0.90;99.90;;;;;;2081457;28;20022;-74
2021/11/23 00:12:49;;;;;;;13.10;7.53;;;0.90;99.90;;;;;;2081945;28;20025;-74
2021/11/23 00:13:50;;;;;;;12.23;7.10;;;0.90;99.90;;;;;;2081971;28;20033;-74
2021/11/23 00:14:51;;;;;;;13.02;7.82;;;0.90;99.90;;;;;;2081608;28;20053;-72
2021/11/23 00:15:52;;;;;;;15.30;8.75;;;0.90;99.90;;;;;;2081637;28;20029;-74
2021/11/23 00:16:53;;;;;;;15.07;8.73;;;0.90;99.90;;;;;;2098024;28;20112;-72
2021/11/23 00:17:54;;;;;;;13.38;8.10;;;0.80;99.90;;;;;;2097929;28;20020;-73
2021/11/23 00:18:54;;;;;;;12.73;8.35;;;0.80;99.90;;;;;;2081334;28;20192;-73
2021/11/23 00:19:55;;;;;;;12.88;7.95;;;0.80;99.90;;;;;;2081279;28;20033;-74
2021/11/23 00:20:56;;;;;;;13.50;7.82;;;0.80;99.90;;;;;;2081651;28;20027;-73
2021/11/23 00:21:57;;;;;;;12.98;7.70;;;0.80;99.90;;;;;;2081002;28;20060;-73
2021/11/23 00:22:58;;;;;;;13.90;8.25;;;0.80;99.90;;;;;;2080666;28;20025;-73
2021/11/23 00:23:59;;;;;;;15.05;8.60;;;0.80;99.90;;;;;;2080900;28;20053;-73
2021/11/23 00:25:01;;;;;;;20.10;10.50;;;0.80;99.90;;;;;;2081799;28;20033;-73
2021/11/23 00:26:02;;;;;;;19.58;10.70;;;0.80;99.90;;;;;;2080931;28;20017;-73
2021/11/23 00:27:04;;;;;;;21.17;10.95;;;0.70;99.90;;;;;;2081485;28;20536;-73
2021/11/23 00:28:04;;;;;;;23.33;12.55;;;0.80;99.90;;;;;;2081488;28;20075;-73
2021/11/23 00:29:05;;;;;;;26.95;13.70;;;0.80;99.90;;;;;;2081673;28;20074;-73
2021/11/23 00:30:06;;;;;;;25.05;13.25;;;0.70;99.90;;;;;;2081387;28;20041;-73
2021/11/23 00:31:07;;;;;;;24.63;12.80;;;0.70;99.90;;;;;;2081621;28;20010;-74
2021/11/23 00:32:07;;;;;;;19.23;11.07;;;0.70;99.90;;;;;;2081240;28;20048;-73
2021/11/23 00:33:08;;;;;;;19.45;10.43;;;0.70;99.90;;;;;;2081700;28;20491;-74
2021/11/23 00:34:09;;;;;;;20.13;10.00;;;0.70;99.90;;;;;;2081678;28;20108;-74
2021/11/23 00:35:13;;;;;;;16.55;9.70;;;0.70;99.90;;;;;;2081889;28;20041;-74
2021/11/23 00:36:14;;;;;;;19.05;10.15;;;0.70;99.90;;;;;;2081275;28;20826;-74
2021/11/23 00:37:15;;;;;;;20.55;10.60;;;0.70;99.90;;;;;;2080884;28;20068;-73
2021/11/23 00:38:19;;;;;;;19.02;11.05;;;0.70;99.90;;;;;;2080738;28;20156;-73
2021/11/23 00:39:19;;;;;;;18.48;11.13;;;0.70;99.90;;;;;;2081350;28;20029;-74
2021/11/23 00:40:21;;;;;;;21.77;12.32;;;0.70;99.90;;;;;;2081344;28;20033;-73
2021/11/23 00:41:22;;;;;;;21.02;12.13;;;0.60;99.90;;;;;;2080410;28;20029;-74
2021/11/23 00:42:23;;;;;;;16.50;11.10;;;0.60;99.90;;;;;;2080830;28;20412;-74
2021/11/23 00:43:24;;;;;;;18.40;10.73;;;0.60;99.90;;;;;;2080179;28;20045;-73
2021/11/23 00:44:24;;;;;;;19.08;11.10;;;0.60;99.90;;;;;;2080610;28;20053;-72
2021/11/23 00:45:25;;;;;;;19.33;10.60;;;0.60;99.90;;;;;;2080659;28;20035;-73
2021/11/23 00:46:26;;;;;;;14.77;9.73;;;0.60;99.90;;;;;;2080539;28;20056;-74
2021/11/23 00:47:26;;;;;;;16.67;9.82;;;0.60;99.90;;;;;;2089413;28;20092;-70
2021/11/23 00:48:27;;;;;;;16.42;9.35;;;0.50;99.90;;;;;;2089425;28;20646;-70
2021/11/23 00:49:28;;;;;;;14.15;9.00;;;0.50;99.90;;;;;;2088264;28;20080;-72
2021/11/23 00:50:30;;;;;;;15.50;9.18;;;0.50;99.90;;;;;;2087962;28;20028;-71
2021/11/23 00:51:30;;;;;;;15.60;9.02;;;0.50;99.90;;;;;;2089226;28;20112;-70
2021/11/23 00:52:31;;;;;;;14.13;8.88;;;0.60;99.90;;;;;;2088760;28;20029;-70
2021/11/23 00:53:34;;;;;;;13.32;8.90;;;0.50;99.90;;;;;;2080567;28;20369;-70
2021/11/23 00:54:34;;;;;;;16.75;10.02;;;0.60;99.90;;;;;;2080701;28;20033;-69
2021/11/23 00:55:35;;;;;;;14.63;9.70;;;0.50;99.90;;;;;;2080831;28;20029;-69
2021/11/23 00:56:36;;;;;;;15.68;9.95;;;0.50;99.90;;;;;;2088987;28;20119;-69
2021/11/23 00:57:37;;;;;;;16.23;10.40;;;0.50;99.90;;;;;;2089701;28;20032;-70
2021/11/23 00:58:38;;;;;;;15.20;10.18;;;0.50;99.90;;;;;;2089730;28;20021;-71
2021/11/23 00:59:39;;;;;;;15.15;10.10;;;0.50;99.90;;;;;;2089479;28;20059;-71
2021/11/23 01:00:40;;;;;;;18.75;10.80;;;0.50;99.90;;;;;;2089288;28;20376;-70
2021/11/23 01:01:41;;;;;;;17.10;10.32;;;0.50;99.90;;;;;;2097404;28;20127;-70
2021/11/23 01:02:46;;;;;;;16.83;10.70;;;0.50;99.90;;;;;;2088944;28;20032;-69
2021/11/23 01:03:47;;;;;;;14.73;9.80;;;0.50;99.90;;;;;;2081074;28;20049;-69
2021/11/23 01:04:47;;;;;;;15.68;10.43;;;0.50;99.90;;;;;;2088766;28;20033;-70
2021/11/23 01:05:50;;;;;;;19.83;11.10;;;0.40;99.90;;;;;;2088300;28;20057;-69
2021/11/23 01:06:51;;;;;;;14.68;10.00;;;0.40;99.90;;;;;;2080722;28;20060;-70
2021/11/23 01:07:52;;;;;;;15.45;10.43;;;0.40;99.90;;;;;;2088932;28;20049;-71
2021/11/23 01:08:53;;;;;;;16.25;10.32;;;0.40;99.90;;;;;;2089382;28;20427;-70
2021/11/23 01:09:54;;;;;;;12.55;9.43;;;0.40;99.90;;;;;;2088390;28;20025;-70
2021/11/23 01:10:56;;;;;;;16.40;10.77;;;0.40;99.90;;;;;;2088978;28;20021;-70
2021/11/23 01:11:57;;;;;;;17.27;10.00;;;0.40;99.90;;;;;;2089293;28;20040;-69
2021/11/23 01:12:58;;;;;;;14.15;9.70;;;0.40;99.90;;;;;;2089870;28;20020;-70
2021/11/23 01:13:59;;;;;;;15.82;9.95;;;0.40;99.90;;;;;;2090660;28;20036;-70
2021/11/23 01:15:00;;;;;;;15.80;10.32;;;0.40;99.90;;;;;;2081363;28;20036;-70
2021/11/23 01:16:01;;;;;;;17.00;9.75;;;0.40;99.90;;;;;;2080888;28;20060;-70
2021/11/23 01:17:02;;;;;;;15.38;9.85;;;0.40;99.90;;;;;;2090202;28;20104;-70
2021/11/23 01:18:04;;;;;;;14.05;9.50;;;0.30;99.90;;;;;;2090402;28;20360;-70
2021/11/23 01:19:07;;;;;;;14.75;9.63;;;0.30;99.90;;;;;;2090234;28;20107;-70
2021/11/23 01:20:10;;;;;;;14.10;9.70;;;0.30;99.90;;;;;;2080914;28;20033;-70
2021/11/23 01:21:13;;;;;;;13.73;9.70;;;0.30;99.90;;;;;;2081352;28;20075;-70
2021/11/23 01:22:14;;;;;;;14.00;10.05;;;0.30;99.90;;;;;;2089745;28;20025;-70
2021/11/23 01:23:15;;;;;;;15.02;10.02;;;0.30;99.90;;;;;;2089299;28;20552;-70
2021/11/23 01:24:16;;;;;;;14.13;10.00;;;0.30;99.90;;;;;;2089535;28;20025;-70
2021/11/23 01:25:16;;;;;;;14.55;10.20;;;0.30;99.90;;;;;;2089278;28;20051;-71
2021/11/23 01:26:17;;;;;;;13.35;9.90;;;0.30;99.90;;;;;;2088657;28;20485;-70
2021/11/23 01:27:18;;;;;;;16.25;10.60;;;0.40;99.90;;;;;;2088837;28;20469;-70
2021/11/23 01:28:19;;;;;;;15.55;10.20;;;0.30;99.90;;;;;;2089392;28;20071;-71
2021/11/23 01:29:20;;;;;;;14.27;9.90;;;0.30;99.90;;;;;;2089491;28;20048;-71
2021/11/23 01:30:21;;;;;;;14.63;10.00;;;0.30;99.90;;;;;;2089600;28;20025;-71
2021/11/23 01:31:22;;;;;;;15.32;10.05;;;0.30;99.90;;;;;;2089973;28;20527;-70
2021/11/23 01:32:23;;;;;;;15.60;9.77;;;0.30;99.90;;;;;;2089914;28;20033;-70
2021/11/23 01:33:24;;;;;;;16.38;10.63;;;0.30;99.90;;;;;;2088832;28;20584;-70
2021/11/23 01:34:26;;;;;;;16.15;10.27;;;0.30;99.90;;;;;;2089047;28;20025;-71
2021/11/23 01:35:27;;;;;;;16.80;10.40;;;0.30;99.90;;;;;;2089732;28;20485;-71
2021/11/23 01:36:31;;;;;;;14.80;10.10;;;0.20;99.90;;;;;;2088432;28;20025;-70
2021/11/23 01:37:32;;;;;;;15.57;10.27;;;0.30;99.90;;;;;;2088687;28;20040;-71
2021/11/23 01:38:34;;;;;;;16.85;11.23;;;0.30;99.90;;;;;;2089549;28;20457;-70
2021/11/23 01:39:35;;;;;;;18.17;11.00;;;0.30;99.90;;;;;;2089433;28;20037;-71
2021/11/23 01:40:36;;;;;;;15.35;10.60;;;0.20;99.90;;;;;;2089078;28;20032;-73
2021/11/23 01:41:37;;;;;;;18.75;10.48;;;0.20;99.90;;;;;;2088658;28;20067;-72
2021/11/23 01:42:38;;;;;;;19.13;11.93;;;0.20;99.90;;;;;;2088309;28;20029;-72
2021/11/23 01:43:40;;;;;;;20.10;11.20;;;0.20;99.90;;;;;;2089063;28;20029;-70
2021/11/23 01:44:40;;;;;;;19.02;11.77;;;0.20;99.90;;;;;;2089006;28;20035;-70
2021/11/23 01:45:43;;;;;;;18.25;10.85;;;0.20;99.90;;;;;;2088781;28;20017;-70
2021/11/23 01:46:44;;;;;;;16.35;9.95;;;0.20;99.90;;;;;;2088621;28;20382;-71
2021/11/23 01:47:45;;;;;;;16.50;10.38;;;0.20;99.90;;;;;;2089034;28;20028;-70
2021/11/23 01:48:45;;;;;;;16.15;9.88;;;0.20;99.90;;;;;;2089070;28;20735;-71
2021/11/23 01:49:46;;;;;;;17.55;9.75;;;0.20;99.90;;;;;;2080476;28;20038;-71
2021/11/23 01:50:47;;;;;;;13.95;9.15;;;0.20;99.90;;;;;;2080194;28;20033;-71
2021/11/23 01:51:49;;;;;;;13.88;9.05;;;0.10;99.90;;;;;;2088627;28;20436;-71
2021/11/23 01:52:49;;;;;;;13.27;8.75;;;0.20;99.90;;;;;;2088376;28;20094;-71
2021/11/23 01:53:50;;;;;;;13.75;8.75;;;0.10;99.90;;;;;;2079799;28;20061;-71
2021/11/23 01:54:52;;;;;;;12.88;8.40;;;0.10;99.90;;;;;;2088545;28;20576;-71
2021/11/23 01:55:53;;;;;;;15.70;9.32;;;0.10;99.90;;;;;;2088159;28;20075;-70
2021/11/23 01:56:54;;;;;;;13.50;9.10;;;0.10;99.90;;;;;;2088407;28;20032;-71
2021/11/23 01:57:55;;;;;;;14.13;8.68;;;0.10;99.90;;;;;;2088444;28;20050;-71
2021/11/23 01:58:56;;;;;;;15.27;9.02;;;0.10;99.90;;;;;;2089062;28;20025;-71
2021/11/23 02:00:00;;;;;;;14.68;9.40;;;0.10;99.90;;;;;;2088996;28;20037;-71
2021/11/23 02:01:00;;;;;;;17.13;11.10;;;0.10;99.90;;;;;;2089058;28;20099;-71
2021/11/23 02:02:01;;;;;;;19.10;11.40;;;0.10;99.90;;;;;;2088692;28;20082;-71
2021/11/23 02:03:03;;;;;;;20.27;11.90;;;0.10;99.90;;;;;;2089007;28;20028;-70
2021/11/23 02:04:04;;;;;;;19.33;11.27;;;0.10;99.90;;;;;;2088387;28;20025;-70
2021/11/23 02:05:05;;;;;;;18.63;11.55;;;0.10;99.90;;;;;;2088688;28;20024;-70
2021/11/23 02:06:08;;;;;;;17.70;11.13;;;0.10;99.90;;;;;;2089164;28;20060;-71
2021/11/23 02:07:12;;;;;;;17.88;11.18;;;0.10;99.90;;;;;;2089826;28;20023;-71
2021/11/23 02:08:13;;;;;;;18.65;11.43;;;0.10;99.90;;;;;;2090124;28;20035;-71
2021/11/23 02:09:14;;;;;;;18.58;11.48;;;0.10;99.90;;;;;;2089737;28;20045;-70
2021/11/23 02:10:18;;;;;;;17.63;11.35;;;0.10;99.90;;;;;;2089589;28;20598;-70
2021/11/23 02:11:19;;;;;;;18.27;11.40;;;0.10;99.90;;;;;;2089228;28;20075;-71
2021/11/23 02:12:21;;;;;;;18.88;11.80;;;0.10;99.90;;;;;;2088333;28;20489;-70
2021/11/23 02:13:22;;;;;;;17.70;10.73;;;0.10;99.90;;;;;;2080928;28;20021;-71
2021/11/23 02:14:23;;;;;;;16.20;10.70;;;0.00;99.90;;;;;;2089360;28;20583;-71
2021/11/23 02:15:24;;;;;;;15.63;10.02;;;0.00;99.90;;;;;;2089045;28;20484;-71
2021/11/23 02:16:25;;;;;;;14.95;9.73;;;0.00;99.90;;;;;;2088983;28;20118;-71
2021/11/23 02:17:25;;;;;;;14.98;10.10;;;0.00;99.90;;;;;;2088961;28;20033;-71
2021/11/23 02:18:27;;;;;;;14.27;9.25;;;0.00;99.90;;;;;;2088288;28;20037;-71
2021/11/23 02:19:28;;;;;;;15.50;10.13;;;0.00;99.90;;;;;;2088356;28;20532;-72
2021/11/23 02:20:30;;;;;;;14.63;9.60;;;0.00;99.90;;;;;;2088124;28;20052;-71
2021/11/23 02:21:31;;;;;;;14.77;9.63;;;0.00;99.90;;;;;;2088506;28;20025;-71
2021/11/23 02:22:32;;;;;;;15.10;9.60;;;0.00;99.90;;;;;;2088305;28;20377;-71
2021/11/23 02:23:35;;;;;;;15.07;9.50;;;0.00;99.90;;;;;;2088412;28;20031;-71
2021/11/23 02:24:36;;;;;;;14.80;9.57;;;0.00;99.90;;;;;;2089895;28;20021;-71
2021/11/23 02:25:37;;;;;;;14.20;9.43;;;0.00;99.90;;;;;;2088797;28;20055;-71
2021/11/23 02:26:38;;;;;;;14.40;9.00;;;0.00;99.90;;;;;;2073166;28;20053;-71
2021/11/23 02:27:39;;;;;;;15.00;9.40;;;0.00;99.90;;;;;;2073356;28;20054;-72
2021/11/23 02:28:41;;;;;;;14.20;8.82;;;0.00;99.90;;;;;;2088805;28;20416;-69
2021/11/23 02:29:42;;;;;;;14.07;8.80;;;0.00;99.90;;;;;;2089275;28;20035;-69
2021/11/23 02:30:53;;;;;;;13.82;9.25;;;0.00;99.90;;;;;;2088959;28;20033;-69
2021/11/23 02:31:54;;;;;;;12.20;8.70;;;0.00;99.90;;;;;;2088766;28;20024;-70
2021/11/23 02:32:55;;;;;;;13.88;8.55;;;0.00;99.90;;;;;;2089083;28;20025;-70
2021/11/23 02:33:58;;;;;;;12.07;8.07;;;0.00;99.90;;;;;;2088358;28;20025;-70
2021/11/23 02:34:59;;;;;;;16.15;8.75;;;0.00;99.90;;;;;;2088452;28;20033;-70
2021/11/23 02:36:03;;;;;;;11.45;8.13;;;0.00;99.90;;;;;;2088756;28;20025;-69
2021/11/23 02:37:04;;;;;;;12.65;8.70;;;0.00;99.90;;;;;;2088503;28;20421;-69
2021/11/23 02:38:12;;;;;;;12.43;7.93;;;-0.10;99.90;;;;;;2080014;28;20382;-69
2021/11/23 02:39:13;;;;;;;12.15;8.45;;;0.00;99.90;;;;;;2087858;28;20037;-70
2021/11/23 02:40:15;;;;;;;12.05;8.25;;;0.00;99.90;;;;;;2087853;28;20067;-70
2021/11/23 02:41:16;;;;;;;15.07;9.63;;;-0.10;99.90;;;;;;2079712;28;20060;-70
2021/11/23 02:42:17;;;;;;;12.68;8.77;;;-0.10;99.90;;;;;;2088080;28;20459;-71
2021/11/23 02:43:18;;;;;;;12.85;8.40;;;-0.10;99.90;;;;;;2087915;28;20032;-71
2021/11/23 02:44:19;;;;;;;12.63;8.95;;;-0.10;99.90;;;;;;2088039;28;20416;-71
2021/11/23 02:45:22;;;;;;;13.70;8.48;;;-0.10;99.90;;;;;;2088729;28;20033;-71
2021/11/23 02:46:23;;;;;;;12.48;8.45;;;-0.10;99.90;;;;;;2088324;28;20460;-71
2021/11/23 02:47:23;;;;;;;12.48;8.65;;;-0.10;99.90;;;;;;2088707;28;20033;-71
2021/11/23 02:48:24;;;;;;;13.05;8.50;;;-0.10;99.90;;;;;;2088661;28;20052;-70
2021/11/23 02:49:25;;;;;;;12.77;8.27;;;-0.10;99.90;;;;;;2088773;28;20048;-70
2021/11/23 02:50:27;;;;;;;13.85;8.43;;;0.00;99.90;;;;;;2087759;28;20021;-71
2021/11/23 02:51:29;;;;;;;11.43;7.90;;;-0.10;99.90;;;;;;2087668;28;20476;-71
2021/11/23 02:52:30;;;;;;;12.15;8.18;;;-0.10;99.90;;;;;;2088513;28;20036;-71
2021/11/23 02:53:31;;;;;;;12.52;8.27;;;-0.10;99.90;;;;;;2088630;28;20485;-71
2021/11/23 02:54:32;;;;;;;11.20;7.82;;;-0.10;99.90;;;;;;2088517;28;20024;-71
2021/11/23 02:55:35;;;;;;;12.18;7.75;;;-0.10;99.90;;;;;;2088648;28;20056;-71
2021/11/23 02:56:36;;;;;;;12.55;8.13;;;-0.10;99.90;;;;;;2088281;28;20052;-71
2021/11/23 02:57:37;;;;;;;12.25;8.23;;;-0.10;99.90;;;;;;2088994;28;20108;-71
2021/11/23 02:58:40;;;;;;;11.65;8.40;;;-0.10;99.90;;;;;;2088758;28;20032;-71
2021/11/23 02:59:41;;;;;;;11.60;7.95;;;-0.10;99.90;;;;;;2088897;28;20025;-71
2021/11/23 03:00:42;;;;;;;12.57;8.57;;;-0.10;99.90;;;;;;2088813;28;20090;-70
2021/11/23 03:01:43;;;;;;;15.30;8.60;;;-0.10;99.90;;;;;;2088591;28;20071;-70
2021/11/23 03:02:45;;;;;;;14.25;8.98;;;-0.10;99.90;;;;;;2088548;28;20087;-71
2021/11/23 03:03:47;;;;;;;18.63;10.30;;;-0.10;99.90;;;;;;2087967;28;20061;-71
2021/11/23 03:04:53;;;;;;;32.00;15.57;;;0.00;99.90;;;;;;2087900;28;20112;-71
2021/11/23 03:05:54;;;;;;;41.67;19.33;;;0.00;99.90;;;;;;2088163;28;20029;-71
2021/11/23 03:06:55;;;;;;;41.33;19.42;;;0.00;99.90;;;;;;2088441;28;20025;-70
2021/11/23 03:07:56;;;;;;;46.83;20.30;;;0.00;99.90;;;;;;2088480;28;20031;-70
2021/11/23 03:08:57;;;;;;;44.55;21.27;;;0.00;99.90;;;;;;2088673;28;20025;-69
2021/11/23 03:09:58;;;;;;;45.97;21.00;;;0.00;99.90;;;;;;2087972;28;20523;-69
2021/11/23 03:11:00;;;;;;;43.53;19.88;;;-0.10;99.90;;;;;;2079926;28;20029;-69
2021/11/23 03:12:01;;;;;;;44.53;20.73;;;0.00;99.90;;;;;;2079992;28;20520;-69
2021/11/23 03:13:02;;;;;;;40.58;19.05;;;0.00;99.90;;;;;;2088897;28;20021;-69
2021/11/23 03:14:03;;;;;;;40.33;18.33;;;-0.10;99.90;;;;;;2088947;28;20108;-69
2021/11/23 03:15:08;;;;;;;36.70;17.73;;;0.00;99.90;;;;;;2088947;28;20032;-70
2021/11/23 03:16:10;;;;;;;33.53;16.35;;;-0.10;99.90;;;;;;2088585;28;20036;-70
2021/11/23 03:17:12;;;;;;;32.08;15.82;;;0.00;99.90;;;;;;2088963;28;20104;-69
2021/11/23 03:18:13;;;;;;;33.08;15.75;;;0.00;99.90;;;;;;2088779;28;20044;-70
2021/11/23 03:19:13;;;;;;;31.20;15.40;;;0.00;99.90;;;;;;2088893;28;20404;-69
2021/11/23 03:20:18;;;;;;;29.52;14.88;;;0.00;99.90;;;;;;2088757;28;20503;-69
2021/11/23 03:21:18;;;;;;;27.27;14.48;;;0.00;99.90;;;;;;2088003;28;20029;-70
2021/11/23 03:22:19;;;;;;;24.73;12.90;;;0.00;99.90;;;;;;2088248;28;20540;-70
2021/11/23 03:23:22;;;;;;;25.70;13.05;;;0.00;99.90;;;;;;2088880;28;20021;-69
2021/11/23 03:24:23;;;;;;;23.63;12.00;;;0.00;99.90;;;;;;2088343;28;20052;-70
2021/11/23 03:25:25;;;;;;;20.52;11.40;;;0.00;99.90;;;;;;2088269;28;20548;-69
2021/11/23 03:26:25;;;;;;;21.00;11.02;;;0.00;99.90;;;;;;2088410;28;20033;-69
2021/11/23 03:27:26;;;;;;;20.40;10.65;;;0.00;99.90;;;;;;2088881;28;20025;-69
2021/11/23 03:28:27;;;;;;;19.50;10.02;;;0.00;99.90;;;;;;2088862;28;20439;-69
2021/11/23 03:29:28;;;;;;;16.60;9.90;;;0.00;99.90;;;;;;2088263;28;20018;-70
2021/11/23 03:30:30;;;;;;;16.92;9.80;;;0.00;99.90;;;;;;2088060;28;20025;-69
2021/11/23 03:31:31;;;;;;;15.80;9.38;;;0.00;99.90;;;;;;2088562;28;20025;-68
2021/11/23 03:32:32;;;;;;;14.32;8.80;;;0.00;99.90;;;;;;2088816;28;20033;-69
2021/11/23 03:33:32;;;;;;;15.68;9.20;;;0.10;99.90;;;;;;2088665;28;20480;-69
2021/11/23 03:34:37;;;;;;;13.63;8.90;;;0.10;99.90;;;;;;2088648;28;20021;-70
2021/11/23 03:35:41;;;;;;;13.13;8.38;;;0.20;99.90;;;;;;2088856;28;20100;-69
2021/11/23 03:36:42;;;;;;;17.38;9.52;;;0.20;99.90;;;;;;2087851;28;20052;-70
2021/11/23 03:37:43;;;;;;;15.95;9.10;;;0.30;99.90;;;;;;2071732;28;20033;-69
2021/11/23 03:38:43;;;;;;;15.68;8.82;;;0.30;99.90;;;;;;2080073;28;20029;-70
2021/11/23 03:39:44;;;;;;;16.80;9.32;;;0.30;99.90;;;;;;2088393;28;20060;-69
2021/11/23 03:40:45;;;;;;;16.08;8.95;;;0.40;99.90;;;;;;2079822;28;20030;-69
2021/11/23 03:41:46;;;;;;;15.75;8.70;;;0.40;99.90;;;;;;2088011;28;20057;-70
2021/11/23 03:42:47;;;;;;;14.55;8.82;;;0.40;99.90;;;;;;2087916;28;20049;-70
2021/11/23 03:43:47;;;;;;;16.52;9.43;;;0.40;99.90;;;;;;2088223;28;20056;-70
2021/11/23 03:44:48;;;;;;;17.35;8.75;;;0.40;99.90;;;;;;2088097;28;20033;-70
2021/11/23 03:45:49;;;;;;;14.20;8.77;;;0.50;99.90;;;;;;2087657;28;20025;-70
2021/11/23 03:46:50;;;;;;;14.02;8.35;;;0.50;99.90;;;;;;2088059;28;20542;-68
2021/11/23 03:47:51;;;;;;;12.07;8.23;;;0.60;99.90;;;;;;2088820;28;20028;-70
2021/11/23 03:48:52;;;;;;;12.65;7.88;;;0.60;99.90;;;;;;2088453;28;20021;-68
2021/11/23 03:49:53;;;;;;;14.10;8.15;;;0.60;99.90;;;;;;2088919;28;20033;-68
2021/11/23 03:50:54;;;;;;;13.98;7.45;;;0.70;99.90;;;;;;2090155;28;20032;-70
2021/11/23 03:51:55;;;;;;;12.93;8.10;;;0.70;99.90;;;;;;2089546;28;20102;-69
2021/11/23 03:52:57;;;;;;;13.32;8.20;;;0.70;99.90;;;;;;2089700;28;20067;-70
2021/11/23 03:53:58;;;;;;;11.55;7.85;;;0.70;99.90;;;;;;2090283;28;20044;-70
2021/11/23 03:54:58;;;;;;;15.05;8.90;;;0.70;99.90;;;;;;2090288;28;20021;-68
2021/11/23 03:55:59;;;;;;;15.38;9.07;;;0.70;99.90;;;;;;2089954;28;20052;-69
2021/11/23 03:57:00;;;;;;;14.48;8.48;;;0.70;99.90;;;;;;2090152;28;20055;-69
2021/11/23 03:58:01;;;;;;;12.93;8.00;;;0.70;99.90;;;;;;2090352;28;20053;-69
2021/11/23 03:59:02;;;;;;;15.27;8.43;;;0.70;99.90;;;;;;2090224;28;20095;-69
2021/11/23 04:00:07;;;;;;;13.80;7.95;;;0.70;99.90;;;;;;2090245;28;20054;-69
2021/11/23 04:01:13;;;;;;;13.75;8.48;;;0.70;99.90;;;;;;2089730;28;20033;-69
2021/11/23 04:02:16;;;;;;;16.83;8.80;;;0.70;99.90;;;;;;2089819;28;20040;-69
2021/11/23 04:03:17;;;;;;;23.00;10.40;;;0.70;99.90;;;;;;2090437;28;20480;-69
2021/11/23 04:04:18;;;;;;;26.38;10.85;;;0.70;99.90;;;;;;2090463;28;20099;-69
2021/11/23 04:05:19;;;;;;;25.05;12.25;;;0.60;99.90;;;;;;2090683;28;20020;-69
2021/11/23 04:06:19;;;;;;;26.35;12.30;;;0.60;99.90;;;;;;2090581;28;20029;-68
2021/11/23 04:07:20;;;;;;;23.25;11.68;;;0.70;99.90;;;;;;2090861;28;20068;-70
2021/11/23 04:08:22;;;;;;;24.63;11.75;;;0.60;99.90;;;;;;2090881;28;20021;-70
2021/11/23 04:09:23;;;;;;;22.90;10.65;;;0.60;99.90;;;;;;2090557;28;20029;-69
2021/11/23 04:10:25;;;;;;;25.00;11.30;;;0.60;99.90;;;;;;2090374;28;20499;-69
2021/11/23 04:11:26;;;;;;;24.77;11.20;;;0.60;99.90;;;;;;2089062;28;20043;-69
2021/11/23 04:12:27;;;;;;;23.95;11.63;;;0.60;99.90;;;;;;2089523;28;20051;-69
2021/11/23 04:13:28;;;;;;;21.02;11.02;;;0.60;99.90;;;;;;2089482;28;20515;-68
2021/11/23 04:14:28;;;;;;;17.85;9.90;;;0.60;99.90;;;;;;2089395;28;20025;-69
2021/11/23 04:15:29;;;;;;;16.48;8.73;;;0.60;99.90;;;;;;2089856;28;20079;-69
2021/11/23 04:16:30;;;;;;;16.00;8.70;;;0.60;99.90;;;;;;2089252;28;20499;-69
2021/11/23 04:17:31;;;;;;;12.20;8.07;;;0.60;99.90;;;;;;2089670;28;20021;-70
2021/11/23 04:18:31;;;;;;;11.40;7.88;;;0.50;99.90;;;;;;2088981;28;20425;-69
2021/11/23 04:19:33;;;;;;;11.93;7.80;;;0.50;99.90;;;;;;2089155;28;20049;-70
2021/11/23 04:20:33;;;;;;;12.10;7.45;;;0.50;99.90;;;;;;2089634;28;20033;-70
2021/11/23 04:21:34;;;;;;;12.70;8.02;;;0.50;99.90;;;;;;2089408;28;20021;-69
2021/11/23 04:22:35;;;;;;;13.70;8.30;;;0.40;99.90;;;;;;2088926;28;20106;-69
2021/11/23 04:23:36;;;;;;;14.70;8.23;;;0.40;99.90;;;;;;2080894;28;20044;-69
2021/11/23 04:24:37;;;;;;;12.27;8.23;;;0.40;99.90;;;;;;2089055;28;20100;-69
2021/11/23 04:25:38;;;;;;;14.60;8.30;;;0.40;99.90;;;;;;2089075;28;20025;-69
2021/11/23 04:26:38;;;;;;;11.75;7.30;;;0.40;99.90;;;;;;2088612;28;20080;-69
2021/11/23 04:27:39;;;;;;;13.13;7.80;;;0.40;99.90;;;;;;2089019;28;20025;-69
2021/11/23 04:28:40;;;;;;;12.23;7.90;;;0.40;99.90;;;;;;2088855;28;20029;-69
2021/11/23 04:29:41;;;;;;;13.32;8.20;;;0.30;99.90;;;;;;2089692;28;20120;-70
2021/11/23 04:30:42;;;;;;;13.50;8.30;;;0.40;99.90;;;;;;2088717;28;20013;-70
2021/11/23 04:31:43;;;;;;;14.57;8.05;;;0.30;99.90;;;;;;2088876;28;20044;-71
2021/11/23 04:32:44;;;;;;;13.80;7.97;;;0.30;99.90;;;;;;2089890;28;20028;-69
2021/11/23 04:33:45;;;;;;;13.48;7.70;;;0.30;99.90;;;;;;2089448;28;20024;-69
2021/11/23 04:34:45;;;;;;;11.55;7.90;;;0.30;99.90;;;;;;2089221;28;20524;-68
2021/11/23 04:35:46;;;;;;;10.63;7.63;;;0.30;99.90;;;;;;2089938;28;20063;-69
2021/11/23 04:36:52;;;;;;;11.50;7.40;;;0.30;99.90;;;;;;2089705;28;20107;-69
2021/11/23 04:37:54;;;;;;;12.23;7.90;;;0.30;99.90;;;;;;2080349;28;20033;-71
2021/11/23 04:38:54;;;;;;;12.65;7.68;;;0.20;99.90;;;;;;2080655;28;20022;-70
2021/11/23 04:39:55;;;;;;;11.30;7.85;;;0.20;99.90;;;;;;2088803;28;20025;-70
2021/11/23 04:40:57;;;;;;;12.55;8.13;;;0.20;99.90;;;;;;2089267;28;20031;-70
2021/11/23 04:41:57;;;;;;;11.02;7.63;;;0.20;99.90;;;;;;2089258;28;20024;-70
2021/11/23 04:42:58;;;;;;;14.25;8.00;;;0.20;99.90;;;;;;2080316;28;20072;-71
2021/11/23 04:43:59;;;;;;;13.52;8.23;;;0.20;99.90;;;;;;2080682;28;20480;-70
2021/11/23 04:44:59;;;;;;;11.80;7.90;;;0.20;99.90;;;;;;2089431;28;20544;-69
2021/11/23 04:46:00;;;;;;;10.77;7.70;;;0.20;99.90;;;;;;2089083;28;20794;-71
2021/11/23 04:47:01;;;;;;;11.00;7.60;;;0.20;99.90;;;;;;2089580;28;20025;-69
2021/11/23 04:48:02;;;;;;;10.90;7.30;;;0.20;99.90;;;;;;2089629;28;20021;-70
2021/11/23 04:49:04;;;;;;;13.90;8.02;;;0.20;99.90;;;;;;2088676;28;20576;-69
2021/11/23 04:50:11;;;;;;;11.68;8.00;;;0.20;99.90;;;;;;2088931;28;20500;-69
2021/11/23 04:51:11;;;;;;;11.57;7.90;;;0.20;99.90;;;;;;2089440;28;20027;-70
2021/11/23 04:52:13;;;;;;;12.30;7.95;;;0.10;99.90;;;;;;2088816;28;20024;-69
2021/11/23 04:53:14;;;;;;;12.48;8.02;;;0.10;99.90;;;;;;2088900;28;20056;-69
2021/11/23 04:54:15;;;;;;;10.55;7.88;;;0.10;99.90;;;;;;2089420;28;20041;-69
2021/11/23 04:55:16;;;;;;;9.30;7.28;;;0.10;99.90;;;;;;2089401;28;20025;-69
2021/11/23 04:56:17;;;;;;;10.32;7.30;;;0.10;99.90;;;;;;2088244;28;20035;-69
2021/11/23 04:57:18;;;;;;;13.43;7.65;;;0.10;99.90;;;;;;2089097;28;20044;-69
2021/11/23 04:58:19;;;;;;;10.55;7.53;;;0.10;99.90;;;;;;2089345;28;20047;-69
2021/11/23 04:59:20;;;;;;;10.27;7.45;;;0.10;99.90;;;;;;2089570;28;20392;-70
2021/11/23 05:00:21;;;;;;;11.95;7.55;;;0.10;99.90;;;;;;2092027;28;20028;-70
2021/11/23 05:01:22;;;;;;;10.60;7.35;;;0.10;99.90;;;;;;2091268;28;20451;-70
2021/11/23 05:02:23;;;;;;;11.45;7.40;;;0.10;99.90;;;;;;2091448;28;20071;-70
2021/11/23 05:03:24;;;;;;;11.63;8.10;;;0.10;99.90;;;;;;2090823;28;20021;-69
2021/11/23 05:04:25;;;;;;;10.32;7.25;;;0.10;99.90;;;;;;2089672;28;20039;-70
2021/11/23 05:05:26;;;;;;;12.55;7.50;;;0.00;99.90;;;;;;2089441;28;20024;-69
2021/11/23 05:06:29;;;;;;;10.70;7.72;;;0.10;99.90;;;;;;2088227;28;20072;-69
2021/11/23 05:07:30;;;;;;;11.30;7.63;;;0.00;99.90;;;;;;2080825;28;20024;-70
2021/11/23 05:08:30;;;;;;;11.75;7.93;;;0.00;99.90;;;;;;2088616;28;20091;-69
2021/11/23 05:09:31;;;;;;;12.27;8.60;;;0.00;99.90;;;;;;2089288;28;20067;-70
2021/11/23 05:10:32;;;;;;;11.88;8.50;;;0.00;99.90;;;;;;2088801;28;20454;-69
2021/11/23 05:11:36;;;;;;;12.50;8.52;;;0.00;99.90;;;;;;2080087;28;20061;-69
2021/11/23 05:12:37;;;;;;;11.70;8.20;;;0.00;99.90;;;;;;2080604;28;20132;-69
2021/11/23 05:13:38;;;;;;;12.10;7.93;;;0.00;99.90;;;;;;2089235;28;20029;-69
2021/11/23 05:14:39;;;;;;;11.88;7.85;;;0.00;99.90;;;;;;2089336;28;20090;-69
2021/11/23 05:15:39;;;;;;;12.82;8.05;;;0.00;99.90;;;;;;2088623;28;20036;-69
2021/11/23 05:16:40;;;;;;;12.55;7.70;;;0.00;99.90;;;;;;2088110;28;20029;-69
2021/11/23 05:17:41;;;;;;;13.13;8.18;;;0.00;99.90;;;;;;2089316;28;20024;-69